Time;durP1;ratioP1;P1;durP2;ratioP2;P2;SDS_P1;SDS_P2;PMS_P1;PMS_P2;Temp;Humidity;BMP_temperature;BMP_pressure;BME280_temperature;BME280_humidity;BME280_pressure;Samples;Min_cycle;Max_cycle;Signal;HPM_P1;HPM_P2
2022/12/07 00:00:15;;;;;;;20.27;14.48;;;;;;;2.95;100.00;101768.63;5102164;28;20032;-60
2022/12/07 00:02:40;;;;;;;19.65;15.93;;;;;;;2.92;100.00;101768.94;5091914;28;20095;-61
2022/12/07 00:05:06;;;;;;;18.27;14.85;;;;;;;2.92;100.00;101768.09;5089146;28;20081;-62
2022/12/07 00:07:31;;;;;;;19.50;15.55;;;;;;;2.89;100.00;101771.97;5107103;28;20039;-64
2022/12/07 00:09:56;;;;;;;18.92;14.88;;;;;;;2.86;100.00;101766.84;5089884;28;20031;-61
2022/12/07 00:12:22;;;;;;;19.48;15.23;;;;;;;2.84;100.00;101763.47;5101905;28;20023;-61
2022/12/07 00:14:47;;;;;;;17.85;14.30;;;;;;;2.78;100.00;101767.63;5105820;28;20028;-63
2022/12/07 00:17:12;;;;;;;17.48;14.00;;;;;;;2.78;100.00;101755.94;5108957;28;20428;-62
2022/12/07 00:19:37;;;;;;;17.98;14.68;;;;;;;2.76;100.00;101760.66;5110965;28;20026;-62
2022/12/07 00:22:03;;;;;;;16.77;14.32;;;;;;;2.74;100.00;101758.13;5110521;28;20505;-61
2022/12/07 00:24:28;;;;;;;18.25;15.10;;;;;;;2.75;100.00;101746.25;5095707;28;20015;-60
2022/12/07 00:26:53;;;;;;;16.48;14.73;;;;;;;2.76;100.00;101747.09;5097681;28;20470;-62
2022/12/07 00:29:21;;;;;;;17.02;14.45;;;;;;;2.75;100.00;101748.13;5110607;28;20034;-62
2022/12/07 00:31:47;;;;;;;20.63;15.23;;;;;;;2.76;100.00;101747.97;5109287;28;20039;-61
2022/12/07 00:34:16;;;;;;;18.20;14.48;;;;;;;2.71;100.00;101739.44;5110023;28;20043;-61
2022/12/07 00:36:41;;;;;;;16.48;13.55;;;;;;;2.70;100.00;101747.75;5107977;28;20032;-61
2022/12/07 00:39:07;;;;;;;17.33;13.75;;;;;;;2.67;100.00;101748.03;5108829;28;20587;-61
2022/12/07 00:41:32;;;;;;;17.35;14.35;;;;;;;2.65;100.00;101742.78;5084737;28;20059;-61
2022/12/07 00:43:58;;;;;;;18.48;14.25;;;;;;;2.65;100.00;101750.94;5110644;28;20046;-61
2022/12/07 00:46:24;;;;;;;17.45;14.25;;;;;;;2.66;100.00;101752.63;5110175;28;20035;-61
2022/12/07 00:48:50;;;;;;;16.67;14.55;;;;;;;2.69;100.00;101752.31;5110628;28;20519;-61
2022/12/07 00:51:18;;;;;;;19.92;15.60;;;;;;;2.72;100.00;101751.13;5109688;28;20356;-61
2022/12/07 00:53:43;;;;;;;17.65;15.45;;;;;;;2.75;100.00;101746.25;5109466;28;20028;-61
2022/12/07 00:56:14;;;;;;;17.90;15.15;;;;;;;2.75;100.00;101750.84;5108573;28;20382;-62
2022/12/07 00:58:40;;;;;;;21.33;15.55;;;;;;;2.77;100.00;101744.22;5108623;28;20035;-61
2022/12/07 01:01:07;;;;;;;17.70;15.00;;;;;;;2.74;100.00;101741.84;5107787;28;20024;-62
2022/12/07 01:03:32;;;;;;;17.75;14.77;;;;;;;2.74;100.00;101739.13;5110856;28;20024;-62
2022/12/07 01:05:58;;;;;;;18.90;15.63;;;;;;;2.73;100.00;101734.69;5109877;28;20031;-63
2022/12/07 01:08:25;;;;;;;17.08;14.32;;;;;;;2.70;100.00;101735.03;5110032;28;20043;-61
2022/12/07 01:11:03;;;;;;;17.23;13.95;;;;;;;2.68;100.00;101734.31;5108770;28;20108;-62
2022/12/07 01:13:28;;;;;;;18.15;13.93;;;;;;;2.64;100.00;101735.66;5102849;28;20352;-61
2022/12/07 01:15:58;;;;;;;18.30;14.05;;;;;;;2.63;100.00;101739.38;5107952;28;20030;-63
2022/12/07 01:18:23;;;;;;;17.25;14.43;;;;;;;2.62;100.00;101739.53;5110039;28;20031;-60
2022/12/07 01:21:22;;;;;;;19.73;14.48;;;;;;;2.68;100.00;101744.31;5108588;28;20043;-60
2022/12/07 01:23:48;;;;;;;17.02;13.80;;;;;;;2.74;100.00;101751.84;5093173;28;20043;-62
2022/12/07 01:26:17;;;;;;;19.92;15.77;;;;;;;2.79;100.00;101746.81;5107979;28;20043;-61
2022/12/07 01:28:43;;;;;;;18.75;14.30;;;;;;;2.85;100.00;101746.16;5109137;28;20519;-61
2022/12/07 01:31:17;;;;;;;19.08;14.52;;;;;;;2.92;100.00;101744.50;5109805;28;20027;-60
2022/12/07 01:33:45;;;;;;;19.73;14.40;;;;;;;2.98;100.00;101743.03;5107812;28;20031;-60
2022/12/07 01:36:18;;;;;;;;;;;;;;;3.05;100.00;101742.25;5108219;28;20036;-61
2022/12/07 01:38:44;;;;;;;19.00;14.57;;;;;;;3.06;100.00;101743.94;5109545;28;20064;-61
2022/12/07 01:41:10;;;;;;;17.17;13.65;;;;;;;3.08;100.00;101741.91;5107242;28;20047;-61
2022/12/07 01:43:36;;;;;;;18.23;13.20;;;;;;;3.11;100.00;101738.03;5108071;28;20618;-61
2022/12/07 01:46:03;;;;;;;17.30;14.10;;;;;;;3.13;100.00;101745.00;5107565;28;20035;-62
2022/12/07 01:48:41;;;;;;;15.70;13.30;;;;;;;3.16;100.00;101738.41;5109557;28;20338;-61
2022/12/07 01:51:13;;;;;;;17.17;12.63;;;;;;;3.19;100.00;101748.06;5108155;28;20020;-63
2022/12/07 01:53:43;;;;;;;14.65;12.40;;;;;;;3.16;100.00;101742.97;5108546;28;20027;-61
2022/12/07 01:56:14;;;;;;;15.93;12.50;;;;;;;3.17;100.00;101736.53;5108900;28;20408;-61
2022/12/07 01:58:39;;;;;;;15.05;12.05;;;;;;;3.16;100.00;101745.69;5108209;28;20115;-62
2022/12/07 02:01:05;;;;;;;15.82;12.10;;;;;;;3.13;100.00;101734.13;5108041;28;20403;-63
2022/12/07 02:03:37;;;;;;;17.13;11.77;;;;;;;3.12;100.00;101734.31;5087621;28;20031;-62
2022/12/07 02:06:04;;;;;;;13.48;11.00;;;;;;;3.06;100.00;101738.50;5108072;28;20031;-61
2022/12/07 02:08:29;;;;;;;15.93;11.43;;;;;;;2.99;100.00;101736.56;5108021;28;20066;-61
2022/12/07 02:10:55;;;;;;;14.27;11.15;;;;;;;2.91;100.00;101740.09;5089470;28;20063;-63
2022/12/07 02:13:28;;;;;;;17.90;11.02;;;;;;;2.84;100.00;101739.03;5108673;28;20434;-61
2022/12/07 02:16:33;;;;;;;14.75;10.82;;;;;;;2.79;100.00;101736.81;5090098;28;20153;-62
2022/12/07 02:19:29;;;;;;;14.02;10.95;;;;;;;2.72;100.00;101740.28;5108037;28;20031;-62
2022/12/07 02:22:11;;;;;;;16.42;10.60;;;;;;;2.66;100.00;101735.50;5107223;28;20035;-62
2022/12/07 02:24:54;;;;;;;18.38;11.02;;;;;;;2.64;100.00;101729.41;5105257;28;20023;-61
2022/12/07 02:27:41;;;;;;;16.63;11.50;;;;;;;2.60;100.00;101735.13;5109524;28;20051;-60
2022/12/07 02:30:10;;;;;;;15.80;11.43;;;;;;;2.56;100.00;101730.16;5108560;28;20073;-60
2022/12/07 02:32:55;;;;;;;15.43;11.05;;;;;;;2.55;100.00;101729.31;5148535;22;20067;-58
2022/12/07 02:35:40;;;;;;;14.20;11.20;;;;;;;2.53;100.00;101733.19;5099606;28;20389;-61
2022/12/07 02:38:17;;;;;;;14.60;10.98;;;;;;;2.47;100.00;101731.09;5107215;28;20367;-58
2022/12/07 02:41:01;;;;;;;17.20;11.30;;;;;;;2.45;100.00;101741.25;5105506;28;20186;-58
2022/12/07 02:43:30;;;;;;;14.48;11.48;;;;;;;2.42;100.00;101733.44;5104936;28;20107;-58
2022/12/07 02:46:06;;;;;;;17.45;11.07;;;;;;;2.39;100.00;101725.63;5089610;28;20024;-58
2022/12/07 02:51:40;;;;;;;12.52;10.85;;;;;;;2.30;100.00;101728.25;5107927;28;20030;-59
2022/12/07 02:54:14;;;;;;;16.33;11.35;;;;;;;2.27;100.00;101722.28;5107246;28;20084;-60
2022/12/07 02:56:52;;;;;;;14.30;12.23;;;;;;;2.26;100.00;101726.84;5108247;28;20505;-60
2022/12/07 02:59:25;;;;;;;15.05;11.57;;;;;;;2.26;100.00;101737.69;5107397;28;20031;-58
2022/12/07 03:02:03;;;;;;;14.77;12.18;;;;;;;2.28;100.00;101734.81;5108309;28;20057;-59
2022/12/07 03:04:33;;;;;;;18.67;14.13;;;;;;;2.34;100.00;101731.50;5106866;28;20028;-58
2022/12/07 03:07:37;;;;;;;19.80;13.13;;;;;;;2.41;100.00;101723.59;5107733;28;20032;-59
2022/12/07 03:10:26;;;;;;;15.70;12.25;;;;;;;2.48;100.00;101730.94;5107369;28;20024;-60
2022/12/07 03:13:09;;;;;;;15.30;11.63;;;;;;;2.53;100.00;101735.88;5108019;28;20382;-58
2022/12/07 03:16:04;;;;;;;15.30;11.88;;;;;;;2.54;100.00;101735.75;5105774;28;20036;-58
2022/12/07 03:18:35;;;;;;;15.23;11.80;;;;;;;2.53;100.00;101736.72;5093288;28;20039;-58
2022/12/07 03:21:08;;;;;;;14.55;11.70;;;;;;;2.55;100.00;101736.59;5106668;28;20069;-59
2022/12/07 03:23:37;;;;;;;15.38;11.73;;;;;;;2.59;100.00;101740.72;5107963;28;20526;-60
2022/12/07 03:26:05;;;;;;;15.23;12.70;;;;;;;2.57;100.00;101737.28;5104949;28;20087;-58
2022/12/07 03:28:39;;;;;;;17.88;12.60;;;;;;;2.60;100.00;101734.28;5107444;28;20137;-59
2022/12/07 03:31:22;;;;;;;15.32;11.70;;;;;;;2.62;100.00;101728.69;5105149;28;20023;-59
2022/12/07 03:33:54;;;;;;;14.90;11.63;;;;;;;2.68;100.00;101725.34;5106713;28;20456;-60
2022/12/07 03:36:40;;;;;;;17.10;12.30;;;;;;;2.72;100.00;101729.44;5107222;28;20031;-60
2022/12/07 03:39:29;;;;;;;15.88;11.38;;;;;;;2.77;100.00;101717.09;5106472;28;20063;-60
2022/12/07 03:41:57;;;;;;;14.50;11.25;;;;;;;2.79;100.00;101720.53;5087898;28;20362;-59
2022/12/07 03:44:23;;;;;;;17.40;11.85;;;;;;;2.82;100.00;101717.47;5105019;28;20028;-59
2022/12/07 03:47:14;;;;;;;12.45;10.93;;;;;;;2.85;100.00;101713.63;5111213;28;20386;-58
2022/12/07 03:49:48;;;;;;;15.13;10.85;;;;;;;2.90;100.00;101710.44;5111322;28;20019;-59
2022/12/07 03:52:41;;;;;;;16.60;11.15;;;;;;;2.94;100.00;101707.25;5109728;28;20059;-60
2022/12/07 03:55:26;;;;;;;14.88;10.95;;;;;;;2.96;100.00;101710.63;5110230;28;20031;-60
2022/12/07 03:57:56;;;;;;;13.68;10.77;;;;;;;2.96;100.00;101716.06;5111539;28;20436;-61
2022/12/07 04:00:21;;;;;;;14.93;10.20;;;;;;;2.97;100.00;101716.91;5110108;28;20396;-62
2022/12/07 04:02:47;;;;;;;13.77;10.25;;;;;;;2.99;100.00;101717.59;5109368;28;20023;-61
2022/12/07 04:05:12;;;;;;;16.42;9.88;;;;;;;3.00;100.00;101720.16;5108195;28;20111;-61
2022/12/07 04:07:38;;;;;;;14.38;10.65;;;;;;;3.01;100.00;101723.72;5111491;28;20144;-63
2022/12/07 04:10:04;;;;;;;12.63;9.90;;;;;;;3.01;100.00;101713.72;5110557;28;20024;-62
2022/12/07 04:12:29;;;;;;;14.70;9.90;;;;;;;3.01;100.00;101712.88;5109747;28;20026;-61
2022/12/07 04:14:55;;;;;;;13.63;9.60;;;;;;;2.99;100.00;101721.19;5110263;28;20123;-62
2022/12/07 04:17:20;;;;;;;13.70;9.63;;;;;;;3.00;100.00;101724.75;5110996;28;20034;-62
2022/12/07 04:19:45;;;;;;;12.43;9.82;;;;;;;3.00;100.00;101730.16;5110641;28;20082;-61
2022/12/07 04:22:11;;;;;;;12.55;9.15;;;;;;;3.01;100.00;101718.28;5109705;28;20031;-60
2022/12/07 04:24:36;;;;;;;13.00;9.70;;;;;;;3.02;100.00;101720.84;5111179;28;20023;-62
2022/12/07 04:27:02;;;;;;;13.65;9.50;;;;;;;3.05;100.00;101717.81;5110303;28;20035;-63
2022/12/07 04:29:27;;;;;;;15.13;9.60;;;;;;;3.04;100.00;101716.13;5111171;28;20513;-61
2022/12/07 04:31:53;;;;;;;11.88;8.90;;;;;;;3.03;100.00;101714.38;5106625;28;20073;-61
2022/12/07 04:34:19;;;;;;;14.45;9.10;;;;;;;3.04;100.00;101720.66;5095264;28;20024;-62
2022/12/07 04:36:45;;;;;;;12.05;8.90;;;;;;;3.05;100.00;101711.53;5093596;28;20114;-60
2022/12/07 04:39:22;;;;;;;13.18;8.77;;;;;;;3.04;100.00;101710.69;5108966;28;20376;-62
2022/12/07 04:41:47;;;;;;;13.57;8.93;;;;;;;3.02;100.00;101709.97;5110181;28;20023;-61
2022/12/07 04:44:14;;;;;;;14.02;8.32;;;;;;;3.01;100.00;101702.00;5105294;28;20495;-61
2022/12/07 04:46:40;;;;;;;14.45;8.98;;;;;;;2.97;100.00;101706.03;5110066;28;20473;-61
2022/12/07 04:49:06;;;;;;;13.13;8.23;;;;;;;2.93;100.00;101702.78;5109738;28;20032;-61
2022/12/07 04:51:31;;;;;;;12.98;8.27;;;;;;;2.90;100.00;101703.13;5110344;28;20028;-61
2022/12/07 04:53:57;;;;;;;14.57;8.57;;;;;;;2.83;100.00;101700.19;5109294;28;20076;-62
2022/12/07 04:56:23;;;;;;;13.90;8.52;;;;;;;2.78;100.00;101701.69;5109805;28;20581;-61
2022/12/07 04:58:49;;;;;;;11.38;8.35;;;;;;;2.73;100.00;101701.31;5109424;28;20034;-62
2022/12/07 05:01:16;;;;;;;12.52;7.70;;;;;;;2.68;100.00;101700.94;5109521;28;20020;-61
2022/12/07 05:03:41;;;;;;;11.68;7.68;;;;;;;2.63;100.00;101697.84;5109797;28;20015;-61
2022/12/07 05:06:08;;;;;;;11.18;7.32;;;;;;;2.62;100.00;101702.41;5107246;28;20454;-61
2022/12/07 05:08:33;;;;;;;13.43;7.72;;;;;;;2.57;100.00;101691.19;5108986;28;20028;-61
2022/12/07 05:10:59;;;;;;;11.35;7.65;;;;;;;2.50;100.00;101692.84;5109355;28;20116;-61
2022/12/07 05:13:25;;;;;;;12.93;8.23;;;;;;;2.47;100.00;101690.44;5110507;28;20012;-62
2022/12/07 05:15:50;;;;;;;13.20;7.32;;;;;;;2.44;100.00;101688.91;5110072;28;20399;-64
2022/12/07 05:18:16;;;;;;;10.27;7.38;;;;;;;2.41;100.00;101694.63;5109810;28;20046;-61
2022/12/07 05:20:42;;;;;;;12.18;7.75;;;;;;;2.42;100.00;101692.75;5108523;28;20032;-62
2022/12/07 05:23:07;;;;;;;13.27;7.85;;;;;;;2.45;100.00;101704.16;5109948;28;20020;-61
2022/12/07 05:25:33;;;;;;;16.83;11.10;;;;;;;2.50;100.00;101703.69;5105881;28;20043;-61
2022/12/07 05:27:58;;;;;;;13.27;9.13;;;;;;;2.52;100.00;101709.78;5110154;28;20028;-60
2022/12/07 05:30:24;;;;;;;12.63;8.52;;;;;;;2.56;100.00;101708.47;5108857;28;20036;-63
2022/12/07 05:32:50;;;;;;;14.95;8.60;;;;;;;2.56;100.00;101706.59;5108831;28;20039;-61
2022/12/07 05:35:16;;;;;;;14.13;8.63;;;;;;;2.53;100.00;101704.19;5095500;28;20081;-64
2022/12/07 05:37:41;;;;;;;14.88;8.73;;;;;;;2.52;100.00;101705.22;5089906;28;20374;-61
2022/12/07 05:40:07;;;;;;;14.25;9.18;;;;;;;2.50;100.00;101699.09;5097153;28;20047;-61
2022/12/07 05:42:33;;;;;;;16.20;8.55;;;;;;;2.46;100.00;101695.00;5109416;28;20039;-63
2022/12/07 05:44:58;;;;;;;14.43;8.93;;;;;;;2.43;100.00;101698.00;5110072;28;20027;-61
2022/12/07 05:47:23;;;;;;;14.75;9.05;;;;;;;2.39;100.00;101687.66;5104896;28;20027;-61
2022/12/07 05:49:48;;;;;;;13.55;9.27;;;;;;;2.38;100.00;101692.22;5107781;28;20175;-62
2022/12/07 05:52:14;;;;;;;13.68;8.73;;;;;;;2.33;100.00;101695.41;5108041;28;20076;-63
2022/12/07 05:54:39;;;;;;;12.43;9.10;;;;;;;2.30;100.00;101686.75;5108605;28;20028;-61
2022/12/07 05:57:05;;;;;;;13.13;8.48;;;;;;;2.24;100.00;101684.66;5109032;28;20122;-62
2022/12/07 05:59:30;;;;;;;15.68;9.00;;;;;;;2.17;100.00;101689.81;5109961;28;20028;-60
2022/12/07 06:01:57;;;;;;;14.13;9.02;;;;;;;2.08;100.00;101688.91;5108258;28;20035;-61
2022/12/07 06:04:24;;;;;;;13.27;8.52;;;;;;;2.01;100.00;101678.84;5106126;28;20023;-62
2022/12/07 06:06:50;;;;;;;11.77;8.13;;;;;;;1.95;100.00;101676.75;5104827;28;20132;-61
2022/12/07 06:09:18;;;;;;;13.20;8.30;;;;;;;1.90;100.00;101690.75;5108077;28;20391;-60
2022/12/07 06:14:27;;;;;;;12.98;8.52;;;;;;;1.78;100.00;101689.28;5109715;28;20038;-60
2022/12/07 06:16:53;;;;;;;13.45;8.90;;;;;;;1.73;100.00;101687.03;5109220;28;20027;-61
2022/12/07 06:19:18;;;;;;;14.75;9.52;;;;;;;1.68;100.00;101688.50;5107845;28;20081;-60
2022/12/07 06:21:43;;;;;;;12.48;8.77;;;;;;;1.62;100.00;101679.09;5107802;28;20036;-62
2022/12/07 06:24:11;;;;;;;13.68;9.63;;;;;;;1.62;100.00;101697.19;5107399;28;20035;-62
2022/12/07 06:26:37;;;;;;;13.85;9.82;;;;;;;1.65;100.00;101699.63;5109049;28;20054;-61
2022/12/07 06:29:02;;;;;;;15.20;10.68;;;;;;;1.71;100.00;101697.16;5108257;28;20486;-61
2022/12/07 06:31:28;;;;;;;16.95;11.88;;;;;;;1.83;100.00;101689.69;5107736;28;20373;-64
2022/12/07 06:34:01;;;;;;;18.20;11.80;;;;;;;1.92;100.00;101699.56;5103640;28;20046;-60
2022/12/07 06:36:27;;;;;;;20.08;13.27;;;;;;;2.00;100.00;101699.66;5101032;28;20370;-60
2022/12/07 06:38:53;;;;;;;21.58;15.60;;;;;;;2.07;100.00;101691.75;5104264;28;20816;-61
2022/12/07 06:41:18;;;;;;;17.88;12.80;;;;;;;2.10;100.00;101690.63;5095532;28;20024;-61
2022/12/07 06:43:44;;;;;;;16.67;12.25;;;;;;;2.05;100.00;101694.63;5107299;28;20031;-61
2022/12/07 06:46:09;;;;;;;15.60;11.32;;;;;;;2.03;100.00;101691.25;5108372;28;20055;-61
2022/12/07 06:48:34;;;;;;;19.75;12.50;;;;;;;1.99;100.00;101689.84;5102336;28;20116;-61
2022/12/07 06:51:00;;;;;;;18.77;13.57;;;;;;;1.94;100.00;101696.72;5087113;28;20031;-60
2022/12/07 06:53:25;;;;;;;16.85;14.38;;;;;;;1.89;100.00;101699.91;5088030;28;20026;-62
2022/12/07 06:55:50;;;;;;;16.70;13.18;;;;;;;1.81;100.00;101691.66;5087511;28;20027;-65
2022/12/07 06:58:16;;;;;;;19.95;15.77;;;;;;;1.80;100.00;101698.09;5097795;28;20031;-62
2022/12/07 07:00:41;;;;;;;19.60;15.98;;;;;;;1.80;100.00;101700.81;5108491;28;20015;-61
2022/12/07 07:03:07;;;;;;;20.83;15.50;;;;;;;1.84;100.00;101701.38;5104282;28;20031;-62
2022/12/07 07:05:32;;;;;;;20.67;15.32;;;;;;;1.90;100.00;101703.44;5107737;28;20072;-63
2022/12/07 07:07:57;;;;;;;21.90;15.48;;;;;;;1.96;100.00;101702.84;5108341;28;20032;-61
2022/12/07 07:10:22;;;;;;;23.27;15.90;;;;;;;1.99;100.00;101707.97;5108100;28;20022;-61
2022/12/07 07:12:48;;;;;;;21.52;16.85;;;;;;;2.02;100.00;101708.47;5108659;28;20019;-60
2022/12/07 07:15:13;;;;;;;18.08;14.95;;;;;;;2.06;100.00;101706.31;5108055;28;20462;-62
2022/12/07 07:17:38;;;;;;;23.50;15.95;;;;;;;2.13;100.00;101703.84;5107440;28;20031;-62
2022/12/07 07:20:04;;;;;;;21.95;14.75;;;;;;;2.18;100.00;101706.94;5086781;28;20027;-60
2022/12/07 07:22:30;;;;;;;22.08;15.20;;;;;;;2.20;100.00;101700.38;5108449;28;20103;-61
2022/12/07 07:24:55;;;;;;;18.52;14.55;;;;;;;2.24;100.00;101701.78;5107316;28;20537;-61
2022/12/07 07:27:20;;;;;;;20.88;14.57;;;;;;;2.26;100.00;101697.03;5108359;28;20035;-61
2022/12/07 07:29:45;;;;;;;18.83;13.38;;;;;;;2.25;100.00;101702.63;5106395;28;20020;-61
2022/12/07 07:32:12;;;;;;;18.50;11.80;;;;;;;2.23;100.00;101702.78;5107489;28;20047;-62
2022/12/07 07:34:37;;;;;;;22.05;15.30;;;;;;;2.26;100.00;101713.28;5105955;28;20028;-61
2022/12/07 07:37:02;;;;;;;22.63;14.82;;;;;;;2.31;100.00;101710.97;5106283;28;20039;-62
2022/12/07 07:39:27;;;;;;;23.77;15.98;;;;;;;2.37;100.00;101712.19;5105564;28;20077;-61
2022/12/07 07:41:53;;;;;;;24.42;17.30;;;;;;;2.40;100.00;101702.91;5108013;28;20106;-60
2022/12/07 07:44:18;;;;;;;24.70;17.60;;;;;;;2.42;100.00;101706.31;5102720;28;20031;-60
2022/12/07 07:46:43;;;;;;;21.65;15.77;;;;;;;2.42;100.00;101701.75;5108127;28;20024;-60
2022/12/07 07:49:10;;;;;;;24.80;15.68;;;;;;;2.43;100.00;101706.16;5105599;28;20090;-60
2022/12/07 07:51:36;;;;;;;19.90;15.20;;;;;;;2.46;100.00;101700.44;5107264;28;20027;-59
2022/12/07 07:54:01;;;;;;;20.10;15.20;;;;;;;2.45;100.00;101704.16;5105300;28;20035;-65
2022/12/07 07:56:26;;;;;;;20.48;14.95;;;;;;;2.44;100.00;101716.00;5108067;28;20114;-61
2022/12/07 07:58:52;;;;;;;21.98;15.23;;;;;;;2.43;100.00;101713.44;5105842;28;20030;-60
2022/12/07 08:01:19;;;;;;;25.05;14.93;;;;;;;2.44;100.00;101705.16;5105078;28;20024;-60
2022/12/07 08:03:45;;;;;;;19.88;15.82;;;;;;;2.46;100.00;101708.56;5105400;28;20016;-60
2022/12/07 08:06:10;;;;;;;20.75;15.65;;;;;;;2.52;100.00;101713.34;5084110;28;20089;-63
2022/12/07 08:08:36;;;;;;;24.88;16.33;;;;;;;2.67;100.00;101712.78;5088182;28;20024;-62
2022/12/07 08:11:05;;;;;;;20.60;14.88;;;;;;;2.96;100.00;101713.34;5107376;28;20368;-65
2022/12/07 08:13:30;;;;;;;18.08;13.63;;;;;;;3.34;100.00;101698.44;5107730;28;20461;-63
2022/12/07 08:15:55;;;;;;;17.30;13.60;;;;;;;3.82;100.00;101702.38;5107538;28;20024;-62
2022/12/07 08:18:21;;;;;;;18.65;12.05;;;;;;;3.98;100.00;101707.00;5107637;28;20062;-61
2022/12/07 08:20:46;;;;;;;18.35;15.15;;;;;;;4.03;100.00;101715.50;5106263;28;20055;-61
2022/12/07 08:23:11;;;;;;;15.05;11.23;;;;;;;4.15;100.00;101711.44;5107411;28;20032;-60
2022/12/07 08:25:37;;;;;;;15.77;11.27;;;;;;;4.13;100.00;101718.06;5106953;28;20023;-63
2022/12/07 08:28:03;;;;;;;18.23;12.23;;;;;;;4.09;100.00;101717.53;5105152;28;20028;-61
2022/12/07 08:30:29;;;;;;;15.70;10.75;;;;;;;4.09;100.00;101709.38;5108191;28;20077;-60
2022/12/07 08:32:56;;;;;;;16.23;10.82;;;;;;;4.23;100.00;101713.31;5095711;28;20102;-62
2022/12/07 08:35:21;;;;;;;19.15;11.88;;;;;;;4.24;100.00;101716.88;5093132;28;20081;-60
2022/12/07 08:37:47;;;;;;;15.23;12.88;;;;;;;4.18;100.00;101723.00;5094080;28;20474;-61
2022/12/07 08:40:18;;;;;;;14.85;10.73;;;;;;;4.15;100.00;101722.31;5093989;28;20039;-63
2022/12/07 08:42:44;;;;;;;14.52;9.90;;;;;;;4.42;100.00;101720.31;5088151;28;20106;-63
2022/12/07 08:45:15;;;;;;;15.38;9.38;;;;;;;4.42;100.00;101726.59;5088036;28;20107;-61
2022/12/07 08:47:54;;;;;;;17.52;9.27;;;;;;;4.21;100.00;101725.38;5091820;27;20023;-62
2022/12/07 08:50:21;;;;;;;15.80;9.77;;;;;;;4.03;100.00;101712.78;5087880;28;20028;-60
2022/12/07 08:52:52;;;;;;;13.85;9.43;;;;;;;3.96;100.00;101725.34;5101189;28;20023;-63
2022/12/07 08:55:18;;;;;;;16.35;10.13;;;;;;;3.92;100.00;101726.69;5102525;27;20055;-63
2022/12/07 08:57:44;;;;;;;19.38;10.57;;;;;;;3.89;100.00;101719.69;5098547;27;20032;-64
2022/12/07 09:00:10;;;;;;;14.55;8.55;;;;;;;3.84;100.00;101716.63;5101292;28;20027;-64
2022/12/07 09:02:35;;;;;;;14.15;7.57;;;;;;;3.78;100.00;101716.44;5108757;28;20015;-60
2022/12/07 09:05:01;;;;;;;12.07;8.00;;;;;;;3.72;100.00;101719.84;5108027;28;20470;-65
2022/12/07 09:07:27;;;;;;;13.55;8.02;;;;;;;3.68;100.00;101708.44;5105077;28;20046;-62
2022/12/07 09:09:52;;;;;;;13.65;7.70;;;;;;;3.66;100.00;101717.78;5108974;28;20027;-60
2022/12/07 09:12:17;;;;;;;13.55;7.15;;;;;;;3.69;100.00;101717.44;5109562;28;20024;-60
2022/12/07 09:14:42;;;;;;;11.23;7.38;;;;;;;3.92;100.00;101712.25;5089815;28;20027;-64
2022/12/07 09:17:10;;;;;;;15.73;7.32;;;;;;;4.35;100.00;101708.41;5108447;28;21248;-61
2022/12/07 09:19:36;;;;;;;14.10;7.88;;;;;;;4.81;100.00;101706.00;5107769;28;20023;-61
2022/12/07 09:22:01;;;;;;;14.18;6.95;;;;;;;4.95;100.00;101710.75;5109423;28;20450;-60
2022/12/07 09:24:26;;;;;;;14.70;6.88;;;;;;;4.79;100.00;101714.34;5109067;28;20058;-61
2022/12/07 09:26:52;;;;;;;12.93;7.03;;;;;;;4.68;100.00;101715.56;5106955;28;20027;-61
2022/12/07 09:29:17;;;;;;;15.48;7.18;;;;;;;4.69;100.00;101719.13;5091984;28;20032;-61
2022/12/07 09:31:42;;;;;;;15.90;7.20;;;;;;;4.84;100.00;101724.72;5087949;28;20051;-61
2022/12/07 09:34:07;;;;;;;15.82;8.20;;;;;;;5.04;100.00;101719.78;5093667;28;20085;-64
2022/12/07 09:36:33;;;;;;;13.70;6.97;;;;;;;5.46;100.00;101717.59;5107996;28;20389;-60
2022/12/07 09:38:59;;;;;;;13.85;7.57;;;;;;;5.60;100.00;101718.75;5108310;28;20051;-60
2022/12/07 09:41:26;;;;;;;13.48;7.00;;;;;;;5.49;100.00;101721.84;5108939;28;20019;-61
2022/12/07 09:43:54;;;;;;;14.50;7.00;;;;;;;5.46;100.00;101714.03;5107968;28;20027;-60
2022/12/07 09:46:20;;;;;;;15.15;7.20;;;;;;;5.61;100.00;101708.69;5100144;28;20016;-60
2022/12/07 09:48:47;;;;;;;12.68;7.05;;;;;;;5.77;100.00;101708.59;5088629;28;20487;-61
2022/12/07 09:51:14;;;;;;;14.48;7.38;;;;;;;6.22;99.58;101710.59;5068837;28;20035;-63
2022/12/07 09:53:41;;;;;;;13.27;6.75;;;;;;;6.91;97.26;101712.41;5087477;28;20113;-60
2022/12/07 09:56:11;;;;;;;9.93;6.38;;;;;;;7.68;93.53;101706.59;5099661;28;20039;-60
2022/12/07 09:58:37;;;;;;;12.48;6.55;;;;;;;8.79;87.74;101692.44;5108373;28;20479;-62
2022/12/07 10:01:12;;;;;;;13.80;7.15;;;;;;;9.55;85.33;101694.41;5107947;28;20104;-61
2022/12/07 10:03:41;;;;;;;13.68;6.72;;;;;;;10.44;78.86;101687.97;5093686;28;20036;-63
2022/12/07 10:06:07;;;;;;;11.60;5.28;;;;;;;11.53;74.25;101680.03;5086871;28;20031;-61
2022/12/07 10:08:33;;;;;;;11.88;5.03;;;;;;;12.81;67.49;101682.69;5087401;28;20032;-61
2022/12/07 10:11:03;;;;;;;12.00;5.40;;;;;;;13.18;65.11;101697.44;5097118;28;20023;-63
2022/12/07 10:13:37;;;;;;;12.63;4.90;;;;;;;12.69;67.15;101687.25;5108202;28;20028;-60
2022/12/07 10:16:03;;;;;;;11.40;4.82;;;;;;;13.59;63.78;101684.09;5106924;28;20359;-63
2022/12/07 10:18:41;;;;;;;11.10;4.82;;;;;;;14.06;59.26;101681.56;5106041;28;20039;-60
2022/12/07 10:21:16;;;;;;;12.55;5.57;;;;;;;12.84;62.88;101678.66;5093023;28;20056;-61
2022/12/07 10:24:00;;;;;;;12.55;5.15;;;;;;;11.26;69.30;101686.69;5088627;28;20028;-60
2022/12/07 10:26:28;;;;;;;10.63;4.63;;;;;;;9.98;72.39;101691.41;5102085;28;20107;-61
2022/12/07 10:28:54;;;;;;;13.18;4.22;;;;;;;9.57;74.44;101684.91;5101699;28;20020;-60
2022/12/07 10:31:22;;;;;;;9.90;4.45;;;;;;;9.38;75.83;101680.19;5089006;27;20027;-61
2022/12/07 10:33:50;;;;;;;11.03;5.63;;;;;;;9.16;77.35;101682.16;5107966;27;20449;-61
2022/12/07 10:36:20;;;;;;;10.57;4.80;;;;;;;8.84;76.85;101681.72;5093461;28;20028;-62
2022/12/07 10:38:48;;;;;;;10.70;5.28;;;;;;;8.95;79.81;101676.75;5086142;28;20485;-63
2022/12/07 10:41:13;;;;;;;11.07;5.00;;;;;;;9.28;77.55;101676.97;5100126;28;20027;-62
2022/12/07 10:43:47;;;;;;;12.35;5.68;;;;;;;9.15;78.97;101666.78;5088726;28;20034;-61
2022/12/07 10:46:58;;;;;;;14.18;5.45;;;;;;;8.81;80.47;101664.84;5088544;28;20031;-62
2022/12/07 10:50:06;;;;;;;10.80;5.05;;;;;;;8.40;82.34;101668.28;5080306;28;20128;-61
2022/12/07 10:52:50;;;;;;;10.85;5.18;;;;;;;8.56;80.86;101665.25;5102383;28;20039;-64
2022/12/07 10:55:15;;;;;;;12.68;6.10;;;;;;;8.65;81.43;101657.75;5093882;28;20031;-61
2022/12/07 10:57:41;;;;;;;10.80;5.60;;;;;;;8.77;81.10;101664.41;5099835;28;20104;-64
2022/12/07 11:00:21;;;;;;;11.73;5.65;;;;;;;8.71;82.24;101661.59;5087169;28;20031;-61
2022/12/07 11:03:07;;;;;;;10.70;4.95;;;;;;;8.12;82.58;101665.47;5087921;28;20016;-61
2022/12/07 11:05:49;;;;;;;11.18;5.22;;;;;;;7.72;85.70;101662.28;5094126;28;20160;-61
2022/12/07 11:08:37;;;;;;;11.25;5.43;;;;;;;7.37;87.05;101661.19;5103803;28;20478;-63
2022/12/07 11:11:12;;;;;;;10.52;7.03;;;;;;;7.02;88.84;101655.44;5088372;28;20024;-62
2022/12/07 11:13:59;;;;;;;14.93;6.05;;;;;;;6.93;90.53;101650.25;5094970;28;20039;-62
2022/12/07 11:17:03;;;;;;;14.15;7.50;;;;;;;7.08;92.10;101645.66;5096037;28;20069;-60
2022/12/07 11:20:04;;;;;;;12.00;6.57;;;;;;;7.37;91.07;101643.97;5087679;28;20046;-62
2022/12/07 11:22:48;;;;;;;9.80;5.50;;;;;;;7.58;90.39;101633.06;5090784;28;20485;-61
2022/12/07 11:25:17;;;;;;;11.52;5.70;;;;;;;7.56;89.79;101632.44;5086568;28;20566;-61
2022/12/07 11:28:11;;;;;;;14.80;6.18;;;;;;;7.46;89.67;101632.72;5102468;28;20114;-62
2022/12/07 11:31:05;;;;;;;12.05;7.68;;;;;;;7.38;90.53;101632.81;5093407;28;20032;-61